createdAt,value
2023-03-28T00:02:00.312Z,101196.81
2023-03-28T00:04:05.452Z,101197.81
2023-03-28T00:06:11.750Z,101196.91
2023-03-28T00:08:15.860Z,101181.97
2023-03-28T00:10:20.195Z,101187.19
2023-03-28T00:12:25.326Z,101182.81
2023-03-28T00:14:29.211Z,101170.50
2023-03-28T00:16:36.604Z,101171.44
2023-03-28T00:18:40.922Z,101169.72
2023-03-28T00:20:45.247Z,101166.06
2023-03-28T00:22:49.873Z,101159.94
2023-03-28T00:24:53.946Z,101165.22
2023-03-28T00:27:00.989Z,101151.16
2023-03-28T00:29:06.636Z,101159.94
2023-03-28T00:31:10.642Z,101156.44
2023-03-28T00:33:16.343Z,101146.69
2023-03-28T00:35:20.284Z,101151.03
2023-03-28T00:37:24.546Z,101146.59
2023-03-28T00:39:29.804Z,101144.81
2023-03-28T00:41:37.028Z,101143.13
2023-03-28T00:43:42.328Z,101138.69
2023-03-28T00:45:53.147Z,101144.03
2023-03-28T00:48:06.941Z,101133.47
2023-03-28T00:50:25.466Z,101134.31
2023-03-28T00:52:33.806Z,101130.84
2023-03-28T00:54:40.576Z,101125.56
2023-03-28T00:56:47.540Z,101115.84
2023-03-28T00:58:52.934Z,101120.22
2023-03-28T01:00:58.282Z,101109.56
2023-03-28T01:03:03.785Z,101100.66
2023-03-28T01:05:09.213Z,101102.28
2023-03-28T01:07:16.477Z,101096.00
2023-03-28T01:09:21.970Z,101086.31
2023-03-28T01:11:28.481Z,101079.19
2023-03-28T01:13:35.259Z,101072.09
2023-03-28T01:15:40.058Z,101075.50
2023-03-28T01:17:46.567Z,101065.81
2023-03-28T01:20:06.551Z,101056.97
2023-03-28T01:22:40.598Z,101056.03
2023-03-28T01:25:25.787Z,101053.25
2023-03-28T01:27:38.588Z,101043.53
2023-03-28T01:30:14.403Z,101053.16
2023-03-28T01:33:32.067Z,101037.25
2023-03-28T01:36:07.365Z,101033.69
2023-03-28T01:38:18.522Z,101030.09
2023-03-28T01:40:34.938Z,101023.13
2023-03-28T01:42:53.220Z,101022.25
2023-03-28T01:45:08.981Z,101018.78
2023-03-28T01:47:21.408Z,101023.13
2023-03-28T01:49:34.564Z,101024.06
2023-03-28T01:51:52.162Z,101023.13
2023-03-28T01:54:01.906Z,101020.56
2023-03-28T01:56:12.463Z,101019.69
2023-03-28T01:58:22.205Z,101020.63
2023-03-28T02:00:33.283Z,101022.34
2023-03-28T02:02:49.739Z,101024.22
2023-03-28T02:05:10.729Z,101016.34
2023-03-28T02:07:24.779Z,101018.16
2023-03-28T02:09:46.314Z,101016.44
2023-03-28T02:12:15.246Z,101012.03
2023-03-28T02:14:42.579Z,101006.81
2023-03-28T02:17:15.574Z,101000.06
2023-03-28T02:19:40.193Z,100995.84
2023-03-28T02:22:04.608Z,100994.09
2023-03-28T02:24:20.202Z,100980.19
2023-03-28T02:26:49.329Z,100970.81
2023-03-28T02:29:14.179Z,100969.00
2023-03-28T02:31:33.634Z,100958.53
2023-03-28T02:33:41.122Z,100941.94
2023-03-28T02:35:55.615Z,100920.31
2023-03-28T02:38:09.000Z,100898.66
2023-03-28T02:40:31.553Z,100900.00
2023-03-28T02:43:14.558Z,100896.72
2023-03-28T02:45:50.642Z,100894.31
2023-03-28T02:48:06.633Z,100890.13
2023-03-28T02:50:21.063Z,100900.81
2023-03-28T02:52:37.102Z,100899.13
2023-03-28T02:54:47.821Z,100901.63
2023-03-28T02:57:18.424Z,100891.06
2023-03-28T02:59:35.977Z,100882.28
2023-03-28T03:01:41.089Z,100885.84
2023-03-28T03:03:45.986Z,100876.94
2023-03-28T03:05:49.480Z,100883.06
2023-03-28T03:07:52.822Z,100877.63
2023-03-28T03:09:56.242Z,100876.63
2023-03-28T03:11:59.925Z,100876.47
2023-03-28T03:14:03.187Z,100872.91
2023-03-28T03:16:09.232Z,100873.66
2023-03-28T03:18:13.163Z,100868.34
2023-03-28T03:20:16.515Z,100863.91
2023-03-28T03:22:21.246Z,100857.72
2023-03-28T03:24:28.459Z,100858.47
2023-03-28T03:26:36.273Z,100858.38
2023-03-28T03:28:41.224Z,100854.72
2023-03-28T03:30:45.977Z,100835.34
2023-03-28T03:32:50.718Z,100831.78
2023-03-28T03:34:54.368Z,100833.47
2023-03-28T03:36:57.711Z,100822.91
2023-03-28T03:39:01.644Z,100815.94
2023-03-28T03:41:06.668Z,100816.78
2023-03-28T03:43:09.997Z,100815.00
2023-03-28T03:45:15.933Z,100814.94
2023-03-28T03:47:20.183Z,100805.16
2023-03-28T03:49:27.697Z,100809.41
2023-03-28T03:51:31.108Z,100806.69
2023-03-28T03:53:35.882Z,100796.91
2023-03-28T03:55:48.982Z,100798.59
2023-03-28T03:57:52.707Z,100787.13
2023-03-28T03:59:57.349Z,100782.63
2023-03-28T04:02:03.299Z,100783.47
2023-03-28T04:04:18.793Z,100781.75
2023-03-28T04:06:42.182Z,100762.53
2023-03-28T04:08:46.731Z,100763.53
2023-03-28T04:10:57.423Z,100764.56
2023-03-28T04:13:01.209Z,100762.84
2023-03-28T04:15:05.424Z,100755.84
2023-03-28T04:17:08.753Z,100750.75
2023-03-28T04:19:14.001Z,100753.47
2023-03-28T04:21:20.685Z,100735.94
2023-03-28T04:23:26.072Z,100742.19
2023-03-28T04:25:31.573Z,100738.66
2023-03-28T04:27:42.036Z,100739.69
2023-03-28T04:29:45.337Z,100729.22
2023-03-28T04:32:07.814Z,100717.91
2023-03-28T04:34:30.917Z,100714.66
2023-03-28T04:36:43.875Z,100704.44
2023-03-28T04:38:49.292Z,100704.78
2023-03-28T04:41:16.994Z,100696.25
2023-03-28T04:43:33.079Z,100691.31
2023-03-28T04:45:37.215Z,100687.16
2023-03-28T04:47:50.025Z,100676.00
2023-03-28T04:49:55.444Z,100667.38
2023-03-28T04:51:58.849Z,100672.81
2023-03-28T04:54:03.727Z,100673.84
2023-03-28T04:56:22.305Z,100663.38
2023-03-28T04:58:26.562Z,100662.53
2023-03-28T05:00:30.749Z,100664.41
2023-03-28T05:02:40.025Z,100664.41
2023-03-28T05:04:44.365Z,100651.22
2023-03-28T05:06:51.741Z,100656.50
2023-03-28T05:08:55.073Z,100648.66
2023-03-28T05:11:04.531Z,100658.28
2023-03-28T05:13:08.555Z,100651.13
2023-03-28T05:15:23.004Z,100643.13
2023-03-28T05:17:37.610Z,100644.00
2023-03-28T05:19:53.597Z,100650.13
2023-03-28T05:21:59.390Z,100638.56
2023-03-28T05:24:02.909Z,100634.91
2023-03-28T05:26:08.246Z,100616.28
2023-03-28T05:28:14.586Z,100620.72
2023-03-28T05:30:26.438Z,100612.72
2023-03-28T05:32:32.191Z,100608.22
2023-03-28T05:34:36.220Z,100610.72
2023-03-28T05:36:40.510Z,100602.63
2023-03-28T05:38:54.556Z,100585.69
2023-03-28T05:40:58.788Z,100568.59
2023-03-28T05:43:03.898Z,100576.28
2023-03-28T05:45:09.345Z,100568.00
2023-03-28T05:47:31.524Z,100576.69
2023-03-28T05:49:35.144Z,100586.38
2023-03-28T05:51:38.547Z,100581.78
2023-03-28T05:53:41.971Z,100562.13
2023-03-28T05:55:46.848Z,100561.84
2023-03-28T05:57:50.149Z,100565.28
2023-03-28T05:59:56.943Z,100550.09
2023-03-28T06:02:01.727Z,100551.81
2023-03-28T06:04:05.797Z,100562.34
2023-03-28T06:06:09.912Z,100552.69
2023-03-28T06:08:13.444Z,100563.13
2023-03-28T06:10:17.182Z,100555.97
2023-03-28T06:12:32.463Z,100551.66
2023-03-28T06:14:37.884Z,100542.88
2023-03-28T06:16:45.031Z,100534.22
2023-03-28T06:18:48.481Z,100532.41
2023-03-28T06:20:51.913Z,100528.84
2023-03-28T06:22:55.180Z,100528.94
2023-03-28T06:24:58.716Z,100503.56
2023-03-28T06:27:08.477Z,100511.66
2023-03-28T06:29:16.294Z,100515.41
2023-03-28T06:31:20.998Z,100485.81
2023-03-28T06:33:26.939Z,100488.63
2023-03-28T06:35:30.345Z,100489.06
2023-03-28T06:37:33.679Z,100485.66
2023-03-28T06:39:43.393Z,100479.72
2023-03-28T06:41:46.659Z,100478.28
2023-03-28T06:43:49.992Z,100474.09
2023-03-28T06:46:12.030Z,100477.78
2023-03-28T06:48:20.574Z,100477.03
2023-03-28T06:50:57.427Z,100461.97
2023-03-28T06:53:01.471Z,100468.94
2023-03-28T06:55:05.755Z,100474.19
2023-03-28T06:57:09.184Z,100427.63
2023-03-28T06:59:16.124Z,100474.19
2023-03-28T07:01:22.119Z,100446.16
2023-03-28T07:03:30.730Z,100445.28
2023-03-28T07:05:39.508Z,100443.53
2023-03-28T07:07:44.559Z,100439.00
2023-03-28T07:09:49.999Z,100443.34
2023-03-28T07:11:53.599Z,100438.72
2023-03-28T07:13:59.133Z,100441.31
2023-03-28T07:16:05.452Z,100435.94
2023-03-28T07:18:10.731Z,100431.50
2023-03-28T07:20:15.154Z,100435.84
2023-03-28T07:22:18.963Z,100435.84
2023-03-28T07:24:24.427Z,100446.28
2023-03-28T07:26:48.244Z,100438.09
2023-03-28T07:28:53.972Z,100431.91
2023-03-28T07:30:57.691Z,100415.25
2023-03-28T07:33:14.149Z,100428.34
2023-03-28T07:35:22.843Z,100427.31
2023-03-28T07:37:28.390Z,100425.31
2023-03-28T07:39:54.803Z,100417.34
2023-03-28T07:42:01.007Z,100414.53
2023-03-28T07:44:05.498Z,100418.59
2023-03-28T07:46:10.976Z,100403.44
2023-03-28T07:48:14.773Z,100397.97
2023-03-28T07:50:19.371Z,100385.53
2023-03-28T07:52:23.052Z,100387.91
2023-03-28T07:54:27.661Z,100385.75
2023-03-28T07:56:33.922Z,100381.88
2023-03-28T07:59:02.165Z,100370.09
2023-03-28T08:01:07.466Z,100380.94
2023-03-28T08:03:21.076Z,100381.50
2023-03-28T08:05:26.615Z,100376.78
2023-03-28T08:07:30.459Z,100392.44
2023-03-28T08:09:34.178Z,100382.63
2023-03-28T08:11:59.354Z,100373.66
2023-03-28T08:14:02.729Z,100360.34
2023-03-28T08:16:08.167Z,100353.88
2023-03-28T08:18:13.122Z,100351.66
2023-03-28T08:20:17.119Z,100357.50
2023-03-28T08:22:35.219Z,100367.50
2023-03-28T08:25:02.034Z,100360.97
2023-03-28T08:27:07.844Z,100362.50
2023-03-28T08:29:11.796Z,100342.75
2023-03-28T08:31:17.595Z,100346.06
2023-03-28T08:33:27.468Z,100347.34
2023-03-28T08:35:31.301Z,100347.91
2023-03-28T08:37:38.719Z,100333.22
2023-03-28T08:39:43.121Z,100325.63
2023-03-28T08:42:26.431Z,100319.75
2023-03-28T08:44:51.799Z,100322.72
2023-03-28T08:46:59.544Z,100317.03
2023-03-28T08:49:12.028Z,100322.13
2023-03-28T08:51:22.084Z,100301.50
2023-03-28T08:53:34.477Z,100311.84
2023-03-28T08:55:42.219Z,100306.34
2023-03-28T08:57:48.378Z,100297.25
2023-03-28T09:00:01.528Z,100295.91
2023-03-28T09:02:17.336Z,100291.03
2023-03-28T09:04:27.309Z,100278.97
2023-03-28T09:06:46.224Z,100271.34
2023-03-28T09:09:14.878Z,100266.34
2023-03-28T09:11:32.302Z,100271.94
2023-03-28T09:13:44.426Z,100278.59
2023-03-28T09:16:04.354Z,100278.16
2023-03-28T09:18:31.066Z,100278.34
2023-03-28T09:20:43.318Z,100271.00
2023-03-28T09:23:15.623Z,100266.25
2023-03-28T09:25:45.129Z,100254.25
2023-03-28T09:27:57.928Z,100255.28
2023-03-28T09:30:19.063Z,100256.53
2023-03-28T09:32:27.889Z,100257.69
2023-03-28T09:34:39.799Z,100255.03
2023-03-28T09:36:49.683Z,100253.47
2023-03-28T09:39:01.049Z,100266.63
2023-03-28T09:41:21.637Z,100249.59
2023-03-28T09:43:32.785Z,100261.03
2023-03-28T09:46:03.638Z,100258.19
2023-03-28T09:48:35.780Z,100257.53
2023-03-28T09:50:43.338Z,100255.06
2023-03-28T09:52:51.325Z,100263.94
2023-03-28T09:54:55.345Z,100262.84
2023-03-28T09:57:02.718Z,100260.06
2023-03-28T09:59:33.327Z,100269.25
2023-03-28T10:01:48.359Z,100269.53
2023-03-28T10:04:14.722Z,100265.72
2023-03-28T10:06:45.840Z,100252.66
2023-03-28T10:08:49.440Z,100254.44
2023-03-28T10:11:07.062Z,100256.59
2023-03-28T10:13:12.194Z,100255.50
2023-03-28T10:15:43.474Z,100255.97
2023-03-28T10:17:57.518Z,100252.22
2023-03-28T10:20:17.206Z,100257.16
2023-03-28T10:22:26.678Z,100262.38
2023-03-28T10:24:33.028Z,100254.41
2023-03-28T10:26:38.883Z,100256.75
2023-03-28T10:28:44.703Z,100253.63
2023-03-28T10:30:55.124Z,100250.59
2023-03-28T10:33:22.322Z,100242.16
2023-03-28T10:35:58.830Z,100241.78
2023-03-28T10:38:04.938Z,100236.22
2023-03-28T10:40:54.254Z,100230.25
2023-03-28T10:43:14.748Z,100227.25
2023-03-28T10:45:57.029Z,100237.47
2023-03-28T10:48:16.672Z,100226.25
2023-03-28T10:50:30.968Z,100220.13
2023-03-28T10:52:39.795Z,100217.63
2023-03-28T10:54:54.008Z,100214.25
2023-03-28T10:57:20.920Z,100212.09
2023-03-28T10:59:47.310Z,100211.72
2023-03-28T11:02:08.906Z,100211.78
2023-03-28T11:04:25.603Z,100212.28
2023-03-28T11:06:36.475Z,100210.38
2023-03-28T11:08:55.072Z,100200.19
2023-03-28T11:11:14.509Z,100199.88
2023-03-28T11:13:31.916Z,100192.78
2023-03-28T11:15:41.841Z,100185.41
2023-03-28T11:18:05.123Z,100184.16
2023-03-28T11:20:31.075Z,100175.91
2023-03-28T11:22:47.706Z,100185.53
2023-03-28T11:25:09.818Z,100173.72
2023-03-28T11:27:44.252Z,100170.59
2023-03-28T11:29:56.546Z,100164.03
2023-03-28T11:32:14.599Z,100158.47
2023-03-28T11:34:25.866Z,100157.50
2023-03-28T11:36:37.640Z,100153.97
2023-03-28T11:38:44.374Z,100149.06
2023-03-28T11:40:54.223Z,100149.91
2023-03-28T11:43:13.714Z,100151.31
2023-03-28T11:45:41.990Z,100143.75
2023-03-28T11:48:03.849Z,100142.06
2023-03-28T11:50:16.554Z,100140.09
2023-03-28T11:52:47.646Z,100137.44
2023-03-28T11:54:59.737Z,100143.63
2023-03-28T11:57:08.272Z,100141.78
2023-03-28T11:59:30.671Z,100139.84
2023-03-28T12:01:36.796Z,100139.84
2023-03-28T12:03:59.970Z,100136.75
2023-03-28T12:06:10.458Z,100130.69
2023-03-28T12:08:22.042Z,100131.69
2023-03-28T12:10:28.647Z,100128.63
2023-03-28T12:12:39.687Z,100131.47
2023-03-28T12:14:52.471Z,100135.03
2023-03-28T12:17:18.698Z,100128.31
2023-03-28T12:19:34.101Z,100128.03
2023-03-28T12:21:45.894Z,100131.16
2023-03-28T12:24:05.943Z,100139.72
2023-03-28T12:26:32.290Z,100145.59
2023-03-28T12:28:42.366Z,100151.50
2023-03-28T12:30:52.004Z,100149.69
2023-03-28T12:33:06.796Z,100149.00
2023-03-28T12:35:22.804Z,100146.31
2023-03-28T12:37:50.960Z,100159.03
2023-03-28T12:40:00.737Z,100159.03
2023-03-28T12:42:10.306Z,100156.81
2023-03-28T12:44:21.030Z,100156.91
2023-03-28T12:46:31.059Z,100144.59
2023-03-28T12:48:39.043Z,100150.31
2023-03-28T12:50:48.831Z,100160.72
2023-03-28T12:52:53.466Z,100167.44
2023-03-28T12:55:31.693Z,100164.22
2023-03-28T12:57:47.259Z,100174.19
2023-03-28T13:00:26.389Z,100170.09
2023-03-28T13:02:56.946Z,100162.81
2023-03-28T13:05:12.431Z,100168.88
2023-03-28T13:07:25.385Z,100169.41
2023-03-28T13:09:43.674Z,100150.66
2023-03-28T13:11:57.900Z,100151.22
2023-03-28T13:14:10.510Z,100149.41
2023-03-28T13:16:17.552Z,100151.38
2023-03-28T13:18:34.074Z,100152.06
2023-03-28T13:20:47.264Z,100143.09
2023-03-28T13:22:53.965Z,100133.31
2023-03-28T13:25:28.782Z,100125.19
2023-03-28T13:27:35.723Z,100129.03
2023-03-28T13:29:50.423Z,100118.81
2023-03-28T13:32:06.921Z,100124.56
2023-03-28T13:34:22.917Z,100120.78
2023-03-28T13:36:33.788Z,100114.34
2023-03-28T13:38:47.070Z,100104.25
2023-03-28T13:40:54.808Z,100114.25
2023-03-28T13:43:01.452Z,100120.97
2023-03-28T13:45:16.344Z,100113.66
2023-03-28T13:47:28.226Z,100116.63
2023-03-28T13:49:43.257Z,100106.66
2023-03-28T13:51:50.549Z,100108.34
2023-03-28T13:53:54.637Z,100103.72
2023-03-28T13:56:19.346Z,100105.00
2023-03-28T13:58:25.227Z,100116.91
2023-03-28T14:00:32.603Z,100110.59
2023-03-28T14:02:43.799Z,100105.13
2023-03-28T14:04:54.176Z,100111.59
2023-03-28T14:06:58.341Z,100119.16
2023-03-28T14:09:02.843Z,100105.56
2023-03-28T14:11:07.622Z,100114.09
2023-03-28T14:13:16.305Z,100104.31
2023-03-28T14:15:26.050Z,100107.78
2023-03-28T14:17:34.125Z,100105.81
2023-03-28T14:19:41.498Z,100103.72
2023-03-28T14:21:45.993Z,100104.44
2023-03-28T14:23:59.818Z,100101.34
2023-03-28T14:26:06.395Z,100107.78
2023-03-28T14:28:10.428Z,100092.22
2023-03-28T14:30:23.291Z,100106.25
2023-03-28T14:32:30.692Z,100104.69
2023-03-28T14:34:38.887Z,100102.84
2023-03-28T14:36:59.358Z,100091.63
2023-03-28T14:39:13.823Z,100102.88
2023-03-28T14:41:21.840Z,100105.94
2023-03-28T14:43:30.549Z,100113.13
2023-03-28T14:45:40.194Z,100104.00
2023-03-28T14:47:45.253Z,100101.75
2023-03-28T14:49:48.829Z,100093.06
2023-03-28T14:51:57.071Z,100089.84
2023-03-28T14:54:00.807Z,100100.91
2023-03-28T14:56:09.136Z,100101.47
2023-03-28T14:58:15.020Z,100097.97
2023-03-28T15:00:23.596Z,100089.00
2023-03-28T15:02:33.705Z,100094.16
2023-03-28T15:04:38.148Z,100082.09
2023-03-28T15:06:41.986Z,100094.69
2023-03-28T15:08:46.947Z,100081.75
2023-03-28T15:10:54.352Z,100090.47
2023-03-28T15:13:06.278Z,100091.31
2023-03-28T15:15:17.095Z,100092.72
2023-03-28T15:17:25.154Z,100095.13
2023-03-28T15:19:36.578Z,100098.09
2023-03-28T15:21:43.260Z,100086.03
2023-03-28T15:23:52.177Z,100091.34
2023-03-28T15:25:57.216Z,100094.72
2023-03-28T15:28:05.073Z,100096.69
2023-03-28T15:30:17.511Z,100101.31
2023-03-28T15:32:23.433Z,100100.06
2023-03-28T15:34:28.906Z,100116.91
2023-03-28T15:36:35.807Z,100121.25
2023-03-28T15:38:41.506Z,100114.69
2023-03-28T15:40:47.671Z,100092.34
2023-03-28T15:42:53.382Z,100093.34
2023-03-28T15:45:17.295Z,100085.50
2023-03-28T15:47:25.908Z,100079.88
2023-03-28T15:49:36.236Z,100075.38
2023-03-28T15:51:48.942Z,100069.22
2023-03-28T15:53:53.860Z,100071.72
2023-03-28T15:56:06.283Z,100061.34
2023-03-28T15:58:14.178Z,100063.31
2023-03-28T16:00:42.859Z,100061.09
2023-03-28T16:02:47.278Z,100060.25
2023-03-28T16:05:04.914Z,100068.41
2023-03-28T16:07:15.610Z,100068.41
2023-03-28T16:09:21.223Z,100065.31
2023-03-28T16:11:27.817Z,100064.19
2023-03-28T16:13:58.084Z,100077.34
2023-03-28T16:16:31.495Z,100067.13
2023-03-28T16:18:58.312Z,100061.94
2023-03-28T16:21:03.118Z,100053.81
2023-03-28T16:23:08.236Z,100053.50
2023-03-28T16:25:12.625Z,100047.94
2023-03-28T16:27:16.386Z,100051.28
2023-03-28T16:29:20.357Z,100054.66
2023-03-28T16:31:24.136Z,100062.66
2023-03-28T16:33:27.822Z,100053.09
2023-03-28T16:35:34.092Z,100053.25
2023-03-28T16:37:39.265Z,100067.56
2023-03-28T16:39:46.572Z,100062.50
2023-03-28T16:41:50.332Z,100067.25
2023-03-28T16:43:53.774Z,100063.88
2023-03-28T16:45:57.591Z,100069.50
2023-03-28T16:48:02.181Z,100080.16
2023-03-28T16:50:09.253Z,100072.88
2023-03-28T16:52:13.884Z,100077.91
2023-03-28T16:54:18.306Z,100074.28
2023-03-28T16:56:27.044Z,100069.78
2023-03-28T16:58:31.335Z,100070.06
2023-03-28T17:00:36.524Z,100091.66
2023-03-28T17:02:40.275Z,100091.66
2023-03-28T17:04:43.929Z,100086.34
2023-03-28T17:06:49.420Z,100093.31
2023-03-28T17:08:55.442Z,100098.50
2023-03-28T17:11:02.741Z,100098.41
2023-03-28T17:13:08.742Z,100089.69
2023-03-28T17:15:13.648Z,100082.69
2023-03-28T17:17:17.784Z,100089.13
2023-03-28T17:19:23.269Z,100091.53
2023-03-28T17:21:27.008Z,100094.44
2023-03-28T17:23:31.068Z,100101.03
2023-03-28T17:25:48.174Z,100091.75
2023-03-28T17:27:56.164Z,100100.44
2023-03-28T17:30:01.862Z,100101.94
2023-03-28T17:32:06.572Z,100108.50
2023-03-28T17:34:11.533Z,100111.72
2023-03-28T17:36:20.952Z,100108.63
2023-03-28T17:38:25.929Z,100116.03
2023-03-28T17:40:30.322Z,100116.16
2023-03-28T17:42:34.272Z,100130.44
2023-03-28T17:44:38.230Z,100130.56
2023-03-28T17:46:44.802Z,100141.34
2023-03-28T17:48:48.857Z,100139.66
2023-03-28T17:50:56.188Z,100140.66
2023-03-28T17:53:00.877Z,100135.59
2023-03-28T17:55:06.630Z,100134.88
2023-03-28T17:57:10.539Z,100127.88
2023-03-28T17:59:15.209Z,100136.13
2023-03-28T18:01:19.935Z,100144.25
2023-03-28T18:03:25.369Z,100137.66
2023-03-28T18:05:54.673Z,100141.53
2023-03-28T18:07:58.597Z,100142.75
2023-03-28T18:10:04.184Z,100155.50
2023-03-28T18:12:08.251Z,100158.44
2023-03-28T18:14:12.700Z,100144.53
2023-03-28T18:16:19.657Z,100149.13
2023-03-28T18:18:25.216Z,100149.25
2023-03-28T18:20:29.292Z,100148.44
2023-03-28T18:22:33.202Z,100143.94
2023-03-28T18:24:37.411Z,100145.78
2023-03-28T18:26:41.471Z,100145.78
2023-03-28T18:28:45.651Z,100143.94
2023-03-28T18:30:49.685Z,100137.78
2023-03-28T18:32:54.533Z,100143.13
2023-03-28T18:35:00.216Z,100141.41
2023-03-28T18:37:05.279Z,100139.03
2023-03-28T18:39:10.500Z,100143.63
2023-03-28T18:41:16.382Z,100139.53
2023-03-28T18:43:21.656Z,100142.47
2023-03-28T18:45:25.815Z,100145.53
2023-03-28T18:47:30.437Z,100146.75
2023-03-28T18:49:34.967Z,100136.50
2023-03-28T18:51:42.841Z,100142.06
2023-03-28T18:53:47.389Z,100140.66
2023-03-28T18:55:52.614Z,100141.75
2023-03-28T18:57:57.391Z,100141.19
2023-03-28T19:00:01.541Z,100138.88
2023-03-28T19:02:05.450Z,100139.97
2023-03-28T19:04:09.741Z,100127.94
2023-03-28T19:06:15.538Z,100132.66
2023-03-28T19:08:22.314Z,100130.25
2023-03-28T19:10:26.419Z,100141.97
2023-03-28T19:12:30.156Z,100138.75
2023-03-28T19:14:33.947Z,100145.16
2023-03-28T19:16:37.566Z,100145.41
2023-03-28T19:18:42.979Z,100149.84
2023-03-28T19:20:51.352Z,100151.81
2023-03-28T19:22:55.157Z,100147.56
2023-03-28T19:25:01.392Z,100155.66
2023-03-28T19:27:06.763Z,100156.63
2023-03-28T19:29:11.084Z,100162.06
2023-03-28T19:31:18.079Z,100156.00
2023-03-28T19:33:21.797Z,100157.00
2023-03-28T19:35:25.593Z,100160.63
2023-03-28T19:37:29.409Z,100157.22
2023-03-28T19:39:33.393Z,100156.28
2023-03-28T19:41:38.621Z,100157.22
2023-03-28T19:43:42.280Z,100145.66
2023-03-28T19:45:46.384Z,100145.66
2023-03-28T19:47:50.265Z,100153.63
2023-03-28T19:49:54.014Z,100166.06
2023-03-28T19:51:59.354Z,100162.53
2023-03-28T19:54:03.476Z,100165.31
2023-03-28T19:56:08.035Z,100167.97
2023-03-28T19:58:13.419Z,100162.81
2023-03-28T20:00:20.466Z,100160.16
2023-03-28T20:02:24.480Z,100166.28
2023-03-28T20:04:29.084Z,100168.13
2023-03-28T20:06:33.654Z,100161.09
2023-03-28T20:08:37.611Z,100164.63
2023-03-28T20:10:42.291Z,100171.72
2023-03-28T20:12:46.224Z,100172.72
2023-03-28T20:14:51.865Z,100181.53
2023-03-28T20:16:55.770Z,100186.00
2023-03-28T20:18:59.905Z,100186.97
2023-03-28T20:21:06.220Z,100186.97
2023-03-28T20:23:11.901Z,100184.31
2023-03-28T20:25:16.369Z,100189.63
2023-03-28T20:27:20.652Z,100194.06
2023-03-28T20:29:25.233Z,100194.06
2023-03-28T20:31:31.140Z,100191.53
2023-03-28T20:33:36.527Z,100193.22
2023-03-28T20:35:42.108Z,100187.22
2023-03-28T20:37:46.258Z,100191.66
2023-03-28T20:39:52.232Z,100189.13
2023-03-28T20:41:56.932Z,100193.75
2023-03-28T20:44:04.001Z,100199.16
2023-03-28T20:46:09.982Z,100197.47
2023-03-28T20:48:17.706Z,100188.66
2023-03-28T20:50:22.084Z,100188.78
2023-03-28T20:52:26.893Z,100189.75
2023-03-28T20:54:31.866Z,100186.38
2023-03-28T20:56:36.852Z,100189.03
2023-03-28T20:58:43.071Z,100189.88
2023-03-28T21:00:49.665Z,100190.13
2023-03-28T21:02:55.697Z,100194.47
2023-03-28T21:05:02.718Z,100198.09
2023-03-28T21:07:06.770Z,100188.56
2023-03-28T21:09:14.639Z,100184.09
2023-03-28T21:11:20.414Z,100181.44
2023-03-28T21:13:24.526Z,100171.78
2023-03-28T21:15:29.386Z,100179.88
2023-03-28T21:17:33.920Z,100178.19
2023-03-28T21:19:37.749Z,100172.88
2023-03-28T21:21:43.583Z,100162.38
2023-03-28T21:23:48.408Z,100168.66
2023-03-28T21:25:53.937Z,100166.00
2023-03-28T21:27:58.984Z,100157.22
2023-03-28T21:30:08.011Z,100161.66
2023-03-28T21:32:13.737Z,100159.97
2023-03-28T21:34:18.165Z,100147.69
2023-03-28T21:36:22.287Z,100152.13
2023-03-28T21:38:27.917Z,100160.22
2023-03-28T21:40:31.645Z,100158.50
2023-03-28T21:42:35.232Z,100158.63
2023-03-28T21:44:39.167Z,100154.41
2023-03-28T21:46:43.187Z,100159.03
2023-03-28T21:48:48.464Z,100155.63
2023-03-28T21:50:54.712Z,100149.63
2023-03-28T21:52:59.092Z,100151.66
2023-03-28T21:55:04.664Z,100154.44
2023-03-28T21:57:08.673Z,100144.91
2023-03-28T21:59:12.569Z,100144.19
2023-03-28T22:01:18.746Z,100144.31
2023-03-28T22:03:23.548Z,100146.25
2023-03-28T22:05:29.522Z,100150.84
2023-03-28T22:07:34.253Z,100149.16
2023-03-28T22:09:39.559Z,100146.50
2023-03-28T22:11:46.343Z,100136.84
2023-03-28T22:13:50.022Z,100140.44
2023-03-28T22:15:58.191Z,100145.03
2023-03-28T22:18:04.774Z,100139.75
2023-03-28T22:20:09.529Z,100140.69
2023-03-28T22:22:13.382Z,100148.78
2023-03-28T22:24:17.632Z,100149.75
2023-03-28T22:26:21.605Z,100149.16
2023-03-28T22:28:26.921Z,100145.75
2023-03-28T22:30:30.575Z,100142.41
2023-03-28T22:32:34.266Z,100135.66
2023-03-28T22:34:38.207Z,100135.88
2023-03-28T22:36:42.640Z,100135.16
2023-03-28T22:38:46.890Z,100127.44
2023-03-28T22:40:51.096Z,100122.16
2023-03-28T22:42:55.234Z,100116.94
2023-03-28T22:45:00.379Z,100113.47
2023-03-28T22:47:04.385Z,100111.75
2023-03-28T22:49:09.353Z,100119.72
2023-03-28T22:51:14.410Z,100104.75
2023-03-28T22:53:20.333Z,100100.31
2023-03-28T22:55:25.554Z,100110.06
2023-03-28T22:57:29.370Z,100110.94
2023-03-28T22:59:33.377Z,100110.19
2023-03-28T23:01:38.708Z,100103.09
2023-03-28T23:03:42.508Z,100103.94
2023-03-28T23:05:46.289Z,100107.53
2023-03-28T23:07:50.836Z,100106.69
2023-03-28T23:09:54.599Z,100111.16
2023-03-28T23:11:58.378Z,100113.69
2023-03-28T23:14:03.575Z,100123.31
2023-03-28T23:16:07.984Z,100118.03
2023-03-28T23:18:13.066Z,100132.13
2023-03-28T23:20:17.294Z,100128.53
2023-03-28T23:22:21.876Z,100122.38
2023-03-28T23:24:26.619Z,100123.22
2023-03-28T23:26:30.314Z,100122.38
2023-03-28T23:28:33.841Z,100116.09
2023-03-28T23:30:39.393Z,100114.28
2023-03-28T23:32:43.502Z,100104.53
2023-03-28T23:34:49.308Z,100111.53
2023-03-28T23:36:57.367Z,100107.91
2023-03-28T23:39:01.148Z,100099.00
2023-03-28T23:41:04.794Z,100107.69
2023-03-28T23:43:09.106Z,100097.78
2023-03-28T23:45:13.388Z,100098.63
2023-03-28T23:47:17.167Z,100109.97
2023-03-28T23:49:20.948Z,100107.19
2023-03-28T23:51:26.305Z,100101.63
2023-03-28T23:53:30.210Z,100102.50
2023-03-28T23:55:34.821Z,100099.72
2023-03-28T23:57:38.348Z,100100.53
2023-03-28T23:59:42.368Z,100110.31
